Time;durP1;ratioP1;P1;durP2;ratioP2;P2;SDS_P1;SDS_P2;PMS_P1;PMS_P2;Temp;Humidity;BMP_temperature;BMP_pressure;BME280_temperature;BME280_humidity;BME280_pressure;Samples;Min_cycle;Max_cycle;Signal;HPM_P1;HPM_P2
2023/01/25 00:02:09;;;;;;;37.40;16.20;;;2.70;99.90;;;;;;6241073;23;20511;-83
2023/01/25 00:04:35;;;;;;;37.60;18.67;;;2.70;99.90;;;;;;6240613;23;20157;-82
2023/01/25 00:07:00;;;;;;;35.27;17.23;;;2.80;99.90;;;;;;6240479;23;20227;-84
2023/01/25 00:09:26;;;;;;;30.20;18.07;;;2.80;99.90;;;;;;6244922;23;20989;-83
2023/01/25 00:11:52;;;;;;;35.50;18.90;;;2.80;99.90;;;;;;6248571;23;20155;-82
2023/01/25 00:14:18;;;;;;;33.10;17.80;;;2.70;99.90;;;;;;6243711;23;20350;-82
2023/01/25 00:16:44;;;;;;;32.65;15.93;;;2.70;99.90;;;;;;6242080;22;20508;-81
2023/01/25 00:19:10;;;;;;;42.58;19.40;;;2.70;99.90;;;;;;6242757;22;20161;-83
2023/01/25 00:21:36;;;;;;;27.92;15.20;;;2.70;99.90;;;;;;6242701;22;20228;-82
2023/01/25 00:24:03;;;;;;;37.03;18.80;;;2.60;99.90;;;;;;6238816;23;20210;-84
2023/01/25 00:26:30;;;;;;;32.72;15.85;;;2.70;99.90;;;;;;6240376;23;20163;-83
2023/01/25 00:28:55;;;;;;;33.10;16.90;;;2.50;99.90;;;;;;6241401;22;20151;-83
2023/01/25 00:31:33;;;;;;;30.50;16.37;;;2.40;99.90;;;;;;6239933;23;20156;-84
2023/01/25 00:34:23;;;;;;;37.72;17.88;;;2.40;99.90;;;;;;6238682;23;20268;-83
2023/01/25 00:37:11;;;;;;;33.97;15.95;;;2.40;99.90;;;;;;6240474;23;20727;-82
2023/01/25 00:39:38;;;;;;;30.42;15.77;;;2.40;99.90;;;;;;6237893;22;20606;-84
2023/01/25 00:42:03;;;;;;;29.95;16.52;;;2.50;99.90;;;;;;6241893;22;20637;-83
2023/01/25 00:44:29;;;;;;;36.77;18.13;;;2.50;99.90;;;;;;6235629;22;20161;-83
2023/01/25 00:46:55;;;;;;;32.73;17.13;;;2.60;99.90;;;;;;6237081;23;20388;-82
2023/01/25 00:49:23;;;;;;;34.00;16.80;;;2.60;99.90;;;;;;6238719;23;20155;-83
2023/01/25 00:51:50;;;;;;;33.55;15.57;;;2.70;99.90;;;;;;6243741;22;20159;-84
2023/01/25 00:54:17;;;;;;;36.75;15.98;;;2.80;99.90;;;;;;6238305;23;20287;-85
2023/01/25 00:56:42;;;;;;;30.20;15.57;;;2.80;99.90;;;;;;6238227;23;20211;-84
2023/01/25 00:59:09;;;;;;;32.17;15.80;;;2.80;99.90;;;;;;6239972;22;20148;-82
2023/01/25 01:01:35;;;;;;;32.90;17.05;;;2.70;99.90;;;;;;6243101;23;20151;-84
2023/01/25 01:04:01;;;;;;;28.63;14.80;;;2.70;99.90;;;;;;6240926;22;20164;-82
2023/01/25 01:06:26;;;;;;;36.20;17.80;;;2.60;99.90;;;;;;6236263;23;20471;-84
2023/01/25 01:08:52;;;;;;;33.90;15.37;;;2.60;99.90;;;;;;6240757;23;20141;-83
2023/01/25 01:11:17;;;;;;;34.77;17.57;;;2.60;99.90;;;;;;6235411;23;20156;-81
2023/01/25 01:13:43;;;;;;;34.40;17.77;;;2.70;99.90;;;;;;6237153;23;20183;-83
2023/01/25 01:16:11;;;;;;;42.30;18.97;;;2.50;99.90;;;;;;6237034;23;20693;-83
2023/01/25 01:18:39;;;;;;;35.95;17.27;;;2.40;99.90;;;;;;6239638;22;20649;-84
2023/01/25 01:21:06;;;;;;;36.53;16.85;;;2.30;99.90;;;;;;6238548;23;20209;-83
2023/01/25 01:23:32;;;;;;;38.22;16.02;;;2.30;99.90;;;;;;6238067;23;20152;-84
2023/01/25 01:25:59;;;;;;;35.33;17.30;;;2.40;99.90;;;;;;6241344;22;20148;-83
2023/01/25 01:28:26;;;;;;;33.80;17.45;;;2.40;99.90;;;;;;6237271;23;20391;-84
2023/01/25 01:30:52;;;;;;;32.72;17.40;;;2.40;99.90;;;;;;6240642;23;20163;-84
2023/01/25 01:33:17;;;;;;;41.80;18.70;;;2.30;99.90;;;;;;6239437;23;20156;-82
2023/01/25 01:35:45;;;;;;;35.50;17.23;;;2.30;99.90;;;;;;6233738;23;20199;-85
2023/01/25 01:38:11;;;;;;;51.42;20.40;;;2.30;99.90;;;;;;6240296;22;20568;-84
2023/01/25 01:40:36;;;;;;;39.37;20.20;;;2.20;99.90;;;;;;6237090;23;20222;-83
2023/01/25 01:43:05;;;;;;;49.63;17.77;;;2.20;99.90;;;;;;6238345;23;20171;-85
2023/01/25 01:45:46;;;;;;;38.05;20.88;;;2.20;99.90;;;;;;6236412;23;20234;-84
2023/01/25 01:48:33;;;;;;;43.17;17.65;;;2.30;99.90;;;;;;6237025;23;20219;-83
2023/01/25 01:51:22;;;;;;;39.35;16.92;;;2.30;99.90;;;;;;6239189;23;20160;-84
2023/01/25 01:53:53;;;;;;;42.58;18.10;;;2.30;99.90;;;;;;6233676;23;20184;-82
2023/01/25 01:56:24;;;;;;;36.50;19.15;;;2.30;99.90;;;;;;6240721;22;20282;-82
2023/01/25 01:58:53;;;;;;;46.88;21.02;;;2.20;99.90;;;;;;6237905;23;20144;-84
2023/01/25 02:01:19;;;;;;;43.25;17.00;;;2.20;99.90;;;;;;6236647;23;20167;-82
2023/01/25 02:03:45;;;;;;;39.77;19.50;;;2.10;99.90;;;;;;6240042;22;20192;-81
2023/01/25 02:06:38;;;;;;;41.63;18.50;;;2.10;99.90;;;;;;6233279;23;20449;-82
2023/01/25 02:09:03;;;;;;;47.38;20.63;;;2.00;99.90;;;;;;6242578;22;20152;-84
2023/01/25 02:11:31;;;;;;;44.70;18.37;;;2.00;99.90;;;;;;6239920;23;20152;-84
2023/01/25 02:13:58;;;;;;;39.42;18.15;;;2.00;99.90;;;;;;6240742;22;20224;-81
2023/01/25 02:16:26;;;;;;;51.45;19.77;;;1.90;99.90;;;;;;6236537;23;20191;-83
2023/01/25 02:18:53;;;;;;;46.53;19.50;;;1.80;99.90;;;;;;6238954;23;20226;-84
2023/01/25 02:21:21;;;;;;;42.65;19.98;;;1.90;99.90;;;;;;6238907;22;20176;-84
2023/01/25 02:24:00;;;;;;;49.28;18.77;;;1.90;99.90;;;;;;6239398;22;20152;-84
2023/01/25 02:26:26;;;;;;;44.40;20.23;;;1.80;99.90;;;;;;6241140;22;20141;-83
2023/01/25 02:28:58;;;;;;;40.43;19.20;;;1.90;99.90;;;;;;6246450;23;20460;-81
2023/01/25 02:31:23;;;;;;;41.38;19.40;;;1.80;99.90;;;;;;6241091;22;20180;-81
2023/01/25 02:33:49;;;;;;;41.53;20.47;;;1.80;99.90;;;;;;6238207;23;20202;-84
2023/01/25 02:36:14;;;;;;;41.70;19.23;;;1.80;99.90;;;;;;6237225;23;20705;-83
2023/01/25 02:38:47;;;;;;;47.83;21.00;;;1.80;99.90;;;;;;6250270;22;20156;-80
2023/01/25 02:41:33;;;;;;;41.75;20.02;;;1.70;99.90;;;;;;6248068;22;20474;-81
2023/01/25 02:44:00;;;;;;;44.63;21.20;;;1.70;99.90;;;;;;6236276;23;20176;-82
2023/01/25 02:46:29;;;;;;;49.22;20.83;;;1.80;99.90;;;;;;6237256;23;20172;-81
2023/01/25 02:48:55;;;;;;;49.90;22.80;;;1.80;99.90;;;;;;6238576;23;20156;-82
2023/01/25 02:51:23;;;;;;;41.03;21.00;;;1.80;99.90;;;;;;6239958;23;20157;-83
2023/01/25 02:53:49;;;;;;;51.58;19.85;;;1.90;99.90;;;;;;6237263;23;20186;-84
2023/01/25 02:56:15;;;;;;;57.90;24.13;;;1.90;99.90;;;;;;6238259;22;20251;-81
2023/01/25 02:58:41;;;;;;;45.63;21.75;;;1.80;99.90;;;;;;6239060;23;20184;-82
2023/01/25 03:01:06;;;;;;;64.03;23.50;;;1.80;99.90;;;;;;6237490;23;20153;-84
2023/01/25 03:03:32;;;;;;;56.73;22.30;;;1.80;99.90;;;;;;6237318;23;20239;-82
2023/01/25 03:05:57;;;;;;;55.53;21.80;;;1.70;99.90;;;;;;6239380;23;20550;-82
2023/01/25 03:08:23;;;;;;;56.90;23.47;;;1.80;99.90;;;;;;6240274;23;20315;-81
2023/01/25 03:10:48;;;;;;;57.13;22.03;;;1.90;99.90;;;;;;6237253;23;20152;-84
2023/01/25 03:13:14;;;;;;;66.17;25.20;;;1.90;99.90;;;;;;6237342;23;20153;-83
2023/01/25 03:15:39;;;;;;;52.70;23.30;;;1.80;99.90;;;;;;6235179;23;20184;-82
2023/01/25 03:18:05;;;;;;;57.03;24.00;;;1.90;99.90;;;;;;6239481;23;20240;-82
2023/01/25 03:20:30;;;;;;;53.27;21.90;;;1.90;99.90;;;;;;6240678;23;20144;-84
2023/01/25 03:22:56;;;;;;;44.07;21.03;;;1.90;99.90;;;;;;6241339;23;20148;-84
2023/01/25 03:25:21;;;;;;;51.57;21.40;;;1.90;99.90;;;;;;6238653;23;20168;-85
2023/01/25 03:27:47;;;;;;;65.07;21.30;;;1.80;99.90;;;;;;6239390;23;20160;-85
2023/01/25 03:30:13;;;;;;;48.70;20.85;;;1.80;99.90;;;;;;6240388;23;20196;-83
2023/01/25 03:32:38;;;;;;;49.57;22.73;;;1.70;99.90;;;;;;6238864;22;20182;-83
2023/01/25 03:35:05;;;;;;;47.67;22.33;;;1.60;99.90;;;;;;6234164;23;20510;-84
2023/01/25 03:37:32;;;;;;;50.65;21.40;;;1.70;99.90;;;;;;6239503;23;20236;-82
2023/01/25 03:39:58;;;;;;;57.28;20.75;;;1.70;99.90;;;;;;6243582;22;20175;-83
2023/01/25 03:42:24;;;;;;;56.73;22.27;;;1.80;99.90;;;;;;6238368;23;20152;-84
2023/01/25 03:44:49;;;;;;;49.60;21.03;;;1.90;99.90;;;;;;6240965;23;20661;-85
2023/01/25 03:47:15;;;;;;;50.60;19.63;;;1.80;99.90;;;;;;6240496;23;20155;-85
2023/01/25 03:49:40;;;;;;;53.53;20.77;;;1.70;99.90;;;;;;6239177;23;20149;-82
2023/01/25 03:52:06;;;;;;;43.23;20.83;;;1.70;99.90;;;;;;6241874;23;20179;-80
2023/01/25 03:54:32;;;;;;;50.03;19.67;;;1.70;99.90;;;;;;6244367;22;20196;-81
2023/01/25 03:56:57;;;;;;;52.60;21.90;;;1.80;99.90;;;;;;6239347;23;20800;-84
2023/01/25 03:59:23;;;;;;;64.07;22.37;;;1.80;99.90;;;;;;6241840;23;20179;-84
2023/01/25 04:01:49;;;;;;;44.83;19.60;;;1.80;99.90;;;;;;6241819;23;20145;-82
2023/01/25 04:04:15;;;;;;;51.33;21.67;;;1.90;99.90;;;;;;6239407;23;20406;-81
2023/01/25 04:06:40;;;;;;;56.90;21.37;;;2.00;99.90;;;;;;6238923;23;20778;-81
2023/01/25 04:09:06;;;;;;;48.23;20.53;;;1.90;99.90;;;;;;6239276;23;20784;-82
2023/01/25 04:11:32;;;;;;;48.83;21.45;;;1.80;99.90;;;;;;6238879;23;20171;-83
2023/01/25 04:13:57;;;;;;;41.60;17.70;;;1.80;99.90;;;;;;6239500;23;20187;-84
2023/01/25 04:16:23;;;;;;;51.13;18.03;;;1.80;99.90;;;;;;6239582;23;20207;-82
2023/01/25 04:18:48;;;;;;;52.77;20.03;;;1.80;99.90;;;;;;6241467;23;20195;-85
2023/01/25 04:21:14;;;;;;;55.67;21.43;;;1.80;99.90;;;;;;6240637;23;20160;-85
2023/01/25 04:23:39;;;;;;;49.17;19.33;;;1.90;99.90;;;;;;6232891;23;20156;-83
2023/01/25 04:26:08;;;;;;;55.13;21.50;;;1.80;99.90;;;;;;6238787;23;20148;-83
2023/01/25 04:28:34;;;;;;;49.78;20.08;;;1.80;99.90;;;;;;6241346;22;20152;-82
2023/01/25 04:31:00;;;;;;;41.33;18.20;;;1.80;99.90;;;;;;6238860;23;20153;-81
2023/01/25 04:33:26;;;;;;;45.47;17.93;;;1.70;99.90;;;;;;6240290;23;20155;-85
2023/01/25 04:35:52;;;;;;;45.03;21.10;;;1.60;99.90;;;;;;6237770;23;20181;-81
2023/01/25 04:38:18;;;;;;;38.03;19.07;;;1.70;99.90;;;;;;6240927;23;20364;-82
2023/01/25 04:40:44;;;;;;;41.20;16.73;;;1.80;99.90;;;;;;6238671;23;20685;-83
2023/01/25 04:43:17;;;;;;;43.08;17.17;;;1.80;99.90;;;;;;6237910;23;20159;-84
2023/01/25 04:45:42;;;;;;;44.35;18.30;;;1.70;99.90;;;;;;6239897;22;20200;-84
2023/01/25 04:48:09;;;;;;;46.70;17.27;;;1.60;99.90;;;;;;6238863;23;20172;-83
2023/01/25 04:50:39;;;;;;;48.38;19.70;;;1.50;99.90;;;;;;6241413;22;20153;-84
2023/01/25 04:53:05;;;;;;;41.65;16.70;;;1.60;99.90;;;;;;6241510;23;20591;-84
2023/01/25 04:55:32;;;;;;;41.00;18.10;;;1.60;99.90;;;;;;6241208;22;20187;-83
2023/01/25 04:57:58;;;;;;;41.67;17.25;;;1.70;99.90;;;;;;6241129;23;20179;-82
2023/01/25 05:00:24;;;;;;;37.83;17.50;;;1.70;99.90;;;;;;6242760;22;20153;-84
2023/01/25 05:02:49;;;;;;;40.23;18.20;;;1.70;99.90;;;;;;6241191;23;20201;-84
2023/01/25 05:05:15;;;;;;;34.70;17.23;;;1.80;99.90;;;;;;6238179;23;20183;-83
2023/01/25 05:07:40;;;;;;;41.10;17.60;;;1.80;99.90;;;;;;6242468;23;20159;-82
2023/01/25 05:10:07;;;;;;;35.50;16.60;;;1.70;99.90;;;;;;6238286;23;20164;-82
2023/01/25 05:12:32;;;;;;;53.22;24.92;;;1.70;99.90;;;;;;6237306;23;20156;-82
2023/01/25 05:14:58;;;;;;;54.93;25.90;;;1.60;99.90;;;;;;6241655;23;20168;-83
2023/01/25 05:17:23;;;;;;;46.87;23.20;;;1.70;99.90;;;;;;6238915;23;20168;-81
2023/01/25 05:19:49;;;;;;;48.63;22.67;;;1.70;99.90;;;;;;6245017;23;20137;-82
2023/01/25 05:22:16;;;;;;;41.23;19.00;;;1.60;99.90;;;;;;6231950;23;20153;-85
2023/01/25 05:24:44;;;;;;;39.03;17.25;;;1.60;99.90;;;;;;6239651;23;20230;-82
2023/01/25 05:27:11;;;;;;;39.58;15.30;;;1.60;99.90;;;;;;6243240;22;20149;-83
2023/01/25 05:29:40;;;;;;;38.53;16.10;;;1.60;99.90;;;;;;6243758;22;20145;-81
2023/01/25 05:32:09;;;;;;;45.75;16.98;;;1.60;99.90;;;;;;6237098;22;20244;-81
2023/01/25 05:34:34;;;;;;;36.10;17.52;;;1.60;99.90;;;;;;6235057;23;20180;-85
2023/01/25 05:37:01;;;;;;;41.67;19.50;;;1.60;99.90;;;;;;6239950;23;20175;-84
2023/01/25 05:39:26;;;;;;;30.50;13.65;;;1.60;99.90;;;;;;6240813;22;20153;-83
2023/01/25 05:41:52;;;;;;;29.30;13.70;;;1.60;99.90;;;;;;6232263;23;20245;-83
2023/01/25 05:44:18;;;;;;;39.37;18.70;;;1.70;99.90;;;;;;6229785;23;20423;-83
2023/01/25 05:46:43;;;;;;;39.67;17.43;;;1.60;99.90;;;;;;6234871;23;21026;-83
2023/01/25 05:49:09;;;;;;;34.43;17.10;;;1.60;99.90;;;;;;6237171;22;20152;-83
2023/01/25 05:51:35;;;;;;;41.20;16.27;;;1.60;99.90;;;;;;6231951;23;20865;-82
2023/01/25 05:54:01;;;;;;;32.15;14.43;;;1.50;99.90;;;;;;6222643;23;20198;-83
2023/01/25 05:56:27;;;;;;;36.08;18.77;;;1.60;99.90;;;;;;6231327;23;20176;-85
2023/01/25 05:58:54;;;;;;;38.60;16.33;;;1.60;99.90;;;;;;6231384;23;20172;-83
2023/01/25 06:01:20;;;;;;;42.30;18.55;;;1.70;99.90;;;;;;6234775;22;20551;-82
2023/01/25 06:03:46;;;;;;;34.30;16.70;;;1.70;99.90;;;;;;6234681;23;20133;-81
2023/01/25 06:06:12;;;;;;;39.83;18.30;;;1.70;99.90;;;;;;6244479;22;20152;-84
2023/01/25 06:08:37;;;;;;;37.83;16.13;;;1.80;99.90;;;;;;6238860;23;20160;-84
2023/01/25 06:11:12;;;;;;;34.40;14.40;;;1.80;99.90;;;;;;6237546;23;20179;-85
2023/01/25 06:13:38;;;;;;;31.48;14.73;;;1.90;99.90;;;;;;6237008;23;20190;-84
2023/01/25 06:16:04;;;;;;;36.77;14.60;;;1.90;99.90;;;;;;6234710;23;20210;-81
2023/01/25 06:18:30;;;;;;;34.23;14.40;;;1.80;99.90;;;;;;6228460;23;20271;-83
2023/01/25 06:20:57;;;;;;;37.45;15.60;;;1.80;99.90;;;;;;6234765;22;21211;-84
2023/01/25 06:23:23;;;;;;;28.85;13.60;;;1.80;99.90;;;;;;6235131;23;20619;-83
2023/01/25 06:25:48;;;;;;;33.00;15.87;;;1.80;99.90;;;;;;6231703;23;20176;-81
2023/01/25 06:28:14;;;;;;;32.73;15.53;;;1.80;99.90;;;;;;6251576;22;20157;-81
2023/01/25 06:30:39;;;;;;;31.63;15.20;;;1.80;99.90;;;;;;6234505;23;20180;-80
2023/01/25 06:33:05;;;;;;;37.90;16.97;;;1.80;99.90;;;;;;6230993;23;20223;-82
2023/01/25 06:35:31;;;;;;;36.43;14.93;;;1.90;99.90;;;;;;6233256;23;20258;-82
2023/01/25 06:37:58;;;;;;;26.67;14.90;;;1.80;99.90;;;;;;6233673;23;20156;-83
2023/01/25 06:40:24;;;;;;;24.65;13.48;;;1.90;99.90;;;;;;6236074;22;20670;-83
2023/01/25 06:42:50;;;;;;;30.90;13.75;;;1.90;99.90;;;;;;6234562;23;20500;-84
2023/01/25 06:45:15;;;;;;;48.93;22.80;;;1.90;99.90;;;;;;6235567;23;20177;-86
2023/01/25 06:47:42;;;;;;;38.23;17.70;;;2.00;99.90;;;;;;6246268;23;20191;-82
2023/01/25 06:50:09;;;;;;;40.35;14.98;;;1.90;99.90;;;;;;6240164;23;20160;-83
2023/01/25 06:52:35;;;;;;;33.17;15.60;;;1.90;99.90;;;;;;6242932;23;20156;-82
2023/01/25 06:55:08;;;;;;;26.77;13.30;;;1.90;99.90;;;;;;6235223;23;20168;-84
2023/01/25 06:57:34;;;;;;;32.05;14.15;;;1.80;99.90;;;;;;6237371;22;20378;-82
2023/01/25 07:00:00;;;;;;;30.47;12.70;;;1.80;99.90;;;;;;6234024;23;20245;-83
2023/01/25 07:02:26;;;;;;;38.07;14.30;;;1.70;99.90;;;;;;6237742;22;20707;-83
2023/01/25 07:04:51;;;;;;;30.20;13.60;;;1.80;99.90;;;;;;6236382;23;20621;-83
2023/01/25 07:07:17;;;;;;;32.07;14.37;;;1.80;99.90;;;;;;6240766;23;20360;-82
2023/01/25 07:09:42;;;;;;;25.30;12.77;;;1.80;99.90;;;;;;6240817;23;20152;-81
2023/01/25 07:12:08;;;;;;;27.57;13.33;;;1.70;99.90;;;;;;6239324;23;20579;-83
2023/01/25 07:14:34;;;;;;;33.77;15.87;;;1.70;99.90;;;;;;6238973;23;20574;-83
2023/01/25 07:16:59;;;;;;;31.50;13.33;;;1.80;99.90;;;;;;6238321;23;20184;-82
2023/01/25 07:19:25;;;;;;;35.10;14.63;;;1.80;99.90;;;;;;6240494;23;20141;-83
2023/01/25 07:21:51;;;;;;;35.00;16.07;;;1.90;99.90;;;;;;6241440;23;20148;-83
2023/01/25 07:24:18;;;;;;;34.37;13.63;;;2.00;99.90;;;;;;6242466;23;20175;-85
2023/01/25 07:26:44;;;;;;;29.77;14.45;;;1.90;99.90;;;;;;6239742;23;20384;-83
2023/01/25 07:29:13;;;;;;;26.98;13.30;;;1.80;99.90;;;;;;6240856;22;20148;-84
2023/01/25 07:31:38;;;;;;;34.03;14.60;;;1.90;99.90;;;;;;6241886;23;20239;-83
2023/01/25 07:34:04;;;;;;;33.20;12.33;;;1.90;99.90;;;;;;6242715;23;20216;-81
2023/01/25 07:36:31;;;;;;;28.30;13.70;;;2.00;99.90;;;;;;6240333;22;20176;-81
2023/01/25 07:38:58;;;;;;;24.10;12.27;;;2.00;99.90;;;;;;6238606;23;20160;-83
2023/01/25 07:41:24;;;;;;;26.90;12.75;;;1.90;99.90;;;;;;6235023;23;20149;-82
2023/01/25 07:43:50;;;;;;;30.60;14.18;;;1.90;99.90;;;;;;6237534;23;20152;-83
2023/01/25 07:46:16;;;;;;;26.50;12.60;;;1.90;99.90;;;;;;6239587;23;20421;-83
2023/01/25 07:48:48;;;;;;;25.33;12.20;;;2.00;99.90;;;;;;6239989;23;20383;-83
2023/01/25 07:51:22;;;;;;;29.58;11.95;;;2.00;99.90;;;;;;6236215;23;20152;-84
2023/01/25 07:53:56;;;;;;;22.50;11.85;;;2.10;99.90;;;;;;6237827;23;20232;-82
2023/01/25 07:56:25;;;;;;;29.25;13.55;;;2.20;99.90;;;;;;6238574;23;20201;-87
2023/01/25 07:58:55;;;;;;;25.27;11.90;;;2.20;99.90;;;;;;6239387;23;20141;-83
2023/01/25 08:01:23;;;;;;;23.65;11.95;;;2.30;99.90;;;;;;6239091;23;20145;-82
2023/01/25 08:03:49;;;;;;;30.13;13.32;;;2.30;99.90;;;;;;6239864;22;20129;-81
2023/01/25 08:06:15;;;;;;;30.70;13.52;;;2.20;99.90;;;;;;6240249;22;20141;-83
2023/01/25 08:08:46;;;;;;;22.23;12.30;;;2.30;99.90;;;;;;6240727;23;20172;-81
2023/01/25 08:11:19;;;;;;;27.25;12.40;;;2.40;99.90;;;;;;6236397;22;20363;-82
2023/01/25 08:13:45;;;;;;;25.65;11.30;;;2.30;99.90;;;;;;6244042;22;20184;-84
2023/01/25 08:16:12;;;;;;;23.80;12.50;;;2.30;99.90;;;;;;6223260;23;20470;-84
2023/01/25 08:18:37;;;;;;;25.08;12.48;;;2.20;99.90;;;;;;6235061;23;20536;-83
2023/01/25 08:21:03;;;;;;;31.20;12.80;;;2.20;99.90;;;;;;6234797;23;20151;-82
2023/01/25 08:23:29;;;;;;;28.80;12.13;;;2.10;99.90;;;;;;6232920;23;20213;-81
2023/01/25 08:25:55;;;;;;;35.20;19.33;;;2.00;99.90;;;;;;6237875;23;20391;-83
2023/01/25 08:28:21;;;;;;;26.10;12.90;;;2.00;99.90;;;;;;6238813;22;20144;-84
2023/01/25 08:30:47;;;;;;;28.17;11.98;;;2.00;99.90;;;;;;6238222;23;20785;-81
2023/01/25 08:33:13;;;;;;;27.20;14.10;;;2.00;99.90;;;;;;6241431;23;20148;-82
2023/01/25 08:35:38;;;;;;;27.70;12.93;;;2.10;99.90;;;;;;6242750;23;20211;-83
2023/01/25 08:38:04;;;;;;;28.33;12.83;;;2.20;99.90;;;;;;6245368;23;20137;-82
2023/01/25 08:40:29;;;;;;;29.33;12.77;;;2.30;99.90;;;;;;6245589;23;20152;-81
2023/01/25 08:42:55;;;;;;;26.30;12.40;;;2.30;99.90;;;;;;6248606;23;20371;-82
2023/01/25 08:45:20;;;;;;;25.53;12.40;;;2.20;99.90;;;;;;6249024;23;20172;-82
2023/01/25 08:47:46;;;;;;;25.37;12.00;;;2.20;99.90;;;;;;6251034;23;20152;-80
2023/01/25 08:50:12;;;;;;;26.20;11.40;;;2.20;99.90;;;;;;6250525;23;20251;-82
2023/01/25 08:52:37;;;;;;;38.03;14.40;;;2.20;99.90;;;;;;6250672;23;20163;-81
2023/01/25 08:55:03;;;;;;;25.60;11.80;;;2.20;99.90;;;;;;6249978;23;20207;-81
2023/01/25 08:57:30;;;;;;;28.87;12.83;;;2.20;99.90;;;;;;6247063;22;20148;-80
2023/01/25 08:59:55;;;;;;;27.75;13.00;;;2.30;99.90;;;;;;6240042;22;20367;-84
2023/01/25 09:02:21;;;;;;;29.23;13.30;;;2.30;99.90;;;;;;6239833;23;20545;-84
2023/01/25 09:04:46;;;;;;;22.10;11.07;;;2.30;99.90;;;;;;6237480;22;20178;-82
2023/01/25 09:07:12;;;;;;;20.43;10.23;;;2.40;99.90;;;;;;6240023;23;20156;-83
2023/01/25 09:09:37;;;;;;;21.80;10.70;;;2.40;99.90;;;;;;6238564;23;20137;-83
2023/01/25 09:12:03;;;;;;;24.37;11.43;;;2.50;99.90;;;;;;6238596;23;20175;-83
2023/01/25 09:14:29;;;;;;;23.30;10.90;;;2.40;99.90;;;;;;6238562;23;20176;-83
2023/01/25 09:16:54;;;;;;;18.20;9.93;;;2.40;99.90;;;;;;6234144;23;20415;-82
2023/01/25 09:19:20;;;;;;;28.03;11.93;;;2.40;99.90;;;;;;6237240;23;20164;-81
2023/01/25 09:21:47;;;;;;;18.17;9.47;;;2.50;99.90;;;;;;6231862;23;20892;-82
2023/01/25 09:24:13;;;;;;;20.05;9.70;;;2.40;99.90;;;;;;6232171;22;20250;-84
2023/01/25 09:26:41;;;;;;;18.92;9.50;;;2.40;99.90;;;;;;6235094;22;20175;-84
2023/01/25 09:29:07;;;;;;;23.63;10.93;;;2.30;99.90;;;;;;6237034;22;20152;-86
2023/01/25 09:31:33;;;;;;;24.63;12.65;;;2.30;99.90;;;;;;6231956;23;20588;-85
2023/01/25 09:33:58;;;;;;;19.43;10.13;;;2.30;99.90;;;;;;6236617;23;20259;-84
2023/01/25 09:36:24;;;;;;;24.37;12.07;;;2.20;99.90;;;;;;6234704;23;20188;-82
2023/01/25 09:38:50;;;;;;;20.77;9.90;;;2.30;99.90;;;;;;6249166;22;20164;-82
2023/01/25 09:41:37;;;;;;;23.67;10.80;;;2.40;99.90;;;;;;6231090;23;20375;-83
2023/01/25 09:44:14;;;;;;;29.20;12.00;;;2.40;99.90;;;;;;6241537;23;20585;-84
2023/01/25 09:46:43;;;;;;;24.05;12.80;;;2.30;99.90;;;;;;6237790;23;20154;-84
2023/01/25 09:49:33;;;;;;;21.92;11.73;;;2.30;99.90;;;;;;6232854;23;20761;-83
2023/01/25 09:52:07;;;;;;;23.23;12.57;;;2.40;99.90;;;;;;6245502;23;20133;-84
2023/01/25 09:54:38;;;;;;;25.88;13.18;;;2.50;99.90;;;;;;6236947;22;20172;-85
2023/01/25 09:57:13;;;;;;;21.02;11.73;;;2.50;99.90;;;;;;6233323;22;20196;-84
2023/01/25 09:59:40;;;;;;;24.05;12.50;;;2.50;99.90;;;;;;6234906;23;20148;-84
2023/01/25 10:02:35;;;;;;;22.08;11.65;;;2.50;99.90;;;;;;6233850;23;20602;-86
2023/01/25 10:05:12;;;;;;;27.83;15.38;;;2.60;99.90;;;;;;6230392;23;21207;-84
2023/01/25 10:07:59;;;;;;;25.95;13.35;;;2.50;99.90;;;;;;6237210;22;20136;-84
2023/01/25 10:10:31;;;;;;;34.72;14.68;;;2.60;99.90;;;;;;6237055;22;20148;-83
2023/01/25 10:12:57;;;;;;;25.75;11.95;;;2.70;99.90;;;;;;6239554;22;20171;-84
2023/01/25 10:15:30;;;;;;;24.93;11.60;;;2.60;99.90;;;;;;6234448;23;20184;-81
2023/01/25 10:18:15;;;;;;;31.83;13.75;;;2.60;99.90;;;;;;6235439;22;20213;-83
2023/01/25 10:20:58;;;;;;;29.02;13.23;;;2.70;99.90;;;;;;6234187;23;20684;-83
2023/01/25 10:23:44;;;;;;;25.48;11.80;;;2.70;99.90;;;;;;6236035;22;20630;-83
2023/01/25 10:26:38;;;;;;;22.30;9.75;;;2.80;99.90;;;;;;6236722;23;20148;-84
2023/01/25 10:29:13;;;;;;;27.73;11.88;;;2.80;99.90;;;;;;6232820;23;20229;-85
2023/01/25 10:31:43;;;;;;;21.05;10.00;;;2.70;99.90;;;;;;6235297;23;20235;-81
2023/01/25 10:34:45;;;;;;;19.83;9.43;;;2.60;99.90;;;;;;6234826;22;20177;-84
2023/01/25 10:37:14;;;;;;;23.75;10.45;;;2.40;99.90;;;;;;6172928;22;20611;-85
2023/01/25 10:39:51;;;;;;;19.02;10.75;;;2.40;99.90;;;;;;6236739;23;20621;-82
2023/01/25 10:42:17;;;;;;;19.80;10.93;;;2.50;99.90;;;;;;6238199;22;20136;-82
2023/01/25 10:44:43;;;;;;;24.50;10.93;;;2.50;99.90;;;;;;6235818;23;20171;-84
2023/01/25 10:47:30;;;;;;;24.23;9.93;;;2.40;99.90;;;;;;6236507;23;20145;-84
2023/01/25 10:49:57;;;;;;;21.75;9.80;;;2.40;99.90;;;;;;6234245;23;20243;-83
2023/01/25 10:52:29;;;;;;;24.17;10.73;;;2.30;99.90;;;;;;6236434;22;20218;-83
2023/01/25 10:55:15;;;;;;;17.67;10.07;;;2.20;99.90;;;;;;6233696;23;20248;-83
2023/01/25 10:57:49;;;;;;;18.08;9.15;;;2.30;99.90;;;;;;6234272;23;20164;-83
2023/01/25 11:00:28;;;;;;;19.23;10.63;;;2.40;99.90;;;;;;6233856;23;20659;-83
2023/01/25 11:02:54;;;;;;;19.17;9.75;;;2.40;99.90;;;;;;6234696;22;20992;-83
2023/01/25 11:05:31;;;;;;;22.93;11.40;;;2.40;99.90;;;;;;6243161;23;20169;-84
2023/01/25 11:08:13;;;;;;;19.70;10.32;;;2.40;99.90;;;;;;6236223;23;20492;-83
2023/01/25 11:10:42;;;;;;;16.83;11.02;;;2.50;99.90;;;;;;6235311;23;20252;-84
2023/01/25 11:13:14;;;;;;;17.05;8.88;;;2.50;99.90;;;;;;6237595;22;20152;-85
2023/01/25 11:15:51;;;;;;;24.02;10.52;;;2.60;99.90;;;;;;6231274;23;20180;-83
2023/01/25 11:18:22;;;;;;;19.52;9.27;;;2.50;99.90;;;;;;6233682;22;20884;-83
2023/01/25 11:21:03;;;;;;;22.40;11.32;;;2.60;99.90;;;;;;6231022;23;20152;-84
2023/01/25 11:23:31;;;;;;;18.80;9.23;;;2.80;99.90;;;;;;6234541;23;20148;-84
2023/01/25 11:26:13;;;;;;;19.23;9.52;;;2.70;99.90;;;;;;6235826;22;20176;-84
2023/01/25 11:28:40;;;;;;;14.88;8.60;;;2.60;99.90;;;;;;6236122;22;20148;-84
2023/01/25 11:31:11;;;;;;;22.02;10.63;;;2.50;99.90;;;;;;6245908;23;20246;-84
2023/01/25 11:33:38;;;;;;;21.75;10.30;;;2.40;99.90;;;;;;6234933;22;20141;-83
2023/01/25 11:36:16;;;;;;;19.02;9.60;;;2.30;99.90;;;;;;6234273;22;20193;-82
2023/01/25 11:39:11;;;;;;;15.48;9.48;;;2.30;99.90;;;;;;6240625;23;20283;-84
2023/01/25 11:41:47;;;;;;;18.40;10.00;;;2.30;99.90;;;;;;6237841;23;20580;-85
2023/01/25 11:44:25;;;;;;;19.25;9.10;;;2.40;99.90;;;;;;6234823;22;20191;-84
2023/01/25 11:46:51;;;;;;;22.48;10.18;;;2.40;99.90;;;;;;6237418;23;20155;-84
2023/01/25 11:49:46;;;;;;;14.97;8.53;;;2.20;99.90;;;;;;6240868;23;20671;-86
2023/01/25 11:52:34;;;;;;;19.23;10.80;;;2.20;99.90;;;;;;6238296;23;20247;-84
2023/01/25 11:55:13;;;;;;;20.90;9.30;;;2.20;99.90;;;;;;6186688;22;20172;-84
2023/01/25 11:57:51;;;;;;;18.35;10.15;;;2.20;99.90;;;;;;6237052;23;20236;-83
2023/01/25 12:00:22;;;;;;;18.98;10.10;;;2.20;99.90;;;;;;6237653;23;20140;-84
2023/01/25 12:03:29;;;;;;;19.33;9.50;;;2.20;99.90;;;;;;6237398;23;20605;-84
2023/01/25 12:06:20;;;;;;;19.83;8.45;;;2.20;99.90;;;;;;6236491;23;21020;-84
2023/01/25 12:09:21;;;;;;;20.73;11.52;;;2.20;99.90;;;;;;6238772;22;20136;-84
2023/01/25 12:11:59;;;;;;;18.05;8.95;;;2.40;99.90;;;;;;6236826;23;20152;-84
2023/01/25 12:15:05;;;;;;;19.27;10.15;;;2.40;99.90;;;;;;6238636;22;20172;-82
2023/01/25 12:17:57;;;;;;;19.48;9.77;;;2.20;99.90;;;;;;6161843;23;20176;-83
2023/01/25 12:20:25;;;;;;;17.88;9.40;;;2.20;99.90;;;;;;6261591;22;20156;-85
2023/01/25 12:23:13;;;;;;;20.45;11.30;;;2.20;99.90;;;;;;6236909;23;20178;-84
2023/01/25 12:25:53;;;;;;;18.85;9.30;;;2.20;99.90;;;;;;6232008;23;20208;-86
2023/01/25 12:28:27;;;;;;;21.85;9.00;;;2.30;99.90;;;;;;6235142;23;20226;-84
2023/01/25 12:31:18;;;;;;;19.60;9.35;;;2.20;99.90;;;;;;6243332;22;20136;-83
2023/01/25 12:33:59;;;;;;;29.67;10.90;;;2.10;99.90;;;;;;6241197;23;20187;-83
2023/01/25 12:36:36;;;;;;;16.63;8.32;;;2.20;99.90;;;;;;6237779;22;20262;-82
2023/01/25 12:39:26;;;;;;;18.75;10.13;;;2.30;99.90;;;;;;6237402;23;20145;-84
2023/01/25 12:42:18;;;;;;;18.95;9.75;;;2.30;99.90;;;;;;6237905;23;20770;-82
2023/01/25 12:45:02;;;;;;;20.02;10.25;;;2.30;99.90;;;;;;6241185;22;20256;-84
2023/01/25 12:47:42;;;;;;;19.13;10.68;;;2.20;99.90;;;;;;6240116;22;20143;-81
2023/01/25 12:50:21;;;;;;;21.85;9.50;;;2.40;99.90;;;;;;6237608;23;20572;-82
2023/01/25 12:53:12;;;;;;;17.73;7.95;;;2.40;99.90;;;;;;6237683;23;20136;-84